KBPG

Big Spring Mc Mahon-Wrinkle Airport

Big Spring, Texas, USA
METAR KBPG 141635Z AUTO 32014KT 10SM CLR 04/M07 A3036 RMK AO2 T00391070
Observed Flight Rules
Dec-14 @ 16:35 UTC (29 minutes ago) Visual Flight Rules
Wind Visibility Clouds
320° at 14 knots 10 miles
  • Clear skies
Temperatures Readings
Current 4°C / 39°F
Dewpoint -7°C / 19°F
Humidity 45%
Altimeter 30.36" Hg
Pressure 1028 hPa
Elevation 784
METAR KBPG 141635Z AUTO 32014KT 10SM CLR 04/M07 A3036 RMK AO2 T00391070
Observed Flight Rules
Dec-14 @ 16:35 UTC
(29 minutes ago)
VFR
Wind Visibility
320° at 14 knots 10 miles
Clouds
  • Clear skies
Temperature Dewpoint
4°C / 39°F -7°C / 19°F
Humidity Altimeter Pressure
45% 30.36" Hg 1028 hPa